Flugplatz Korbach

Für EDGK sind keine METAR/TAF Berichte vorhanden.
Es werden die Flugwettermeldungen vom Flugplatz Fritzlar Airport in 32 km Entfernung angezeigt.

Bericht für ETHF

vom 30.09. um 21:20 UTC

Wind 3 kt aus 190°

Sichtweite 8000 m

Temperatur 7.0°C

Taupunkt 5.0°C

Luftfeuchtigkeit 87%

Luftdruck 1011 hPa

ETHF 302120Z AUTO 19003KT 8000 // ////// 07/05 Q1011 ///
Keine Prognose (TAF) verfügbar.
Impressum